KSUA/SUA METAR and TAF weather

Enter ICAO airport designator
Station Type Date Time Source
KSUA METAR 2019/10/23 19:47 UTC NOAA

KSUA 231947Z 01010G18KT 7SM VCSH BKN012 BKN022 28/24 A3002


Station Type Date Time Source
KSUA Decoded METAR 2019/10/23 19:47 UTC NOAA

Stuart, Witham Field Airport, FL, United States (KSUA) 27-10-54N 080-13-16W
Oct 23, 2019 - 03:47 PM EDT / 2019.10.23 1947 UTC
Wind: from the N (010 degrees) at 12 MPH (10 KT) gusting to 21 MPH (18 KT):0
Visibility: 7 mile(s):0
Sky conditions: mostly cloudy
Weather: showers in the vicinity
Temperature: 82 F (28 C)
Dew Point: 75 F (24 C)
Relative Humidity: 78%
Pressure (altimeter): 30.02 in. Hg (1016 hPa)
ob: KSUA 231947Z 01010G18KT 7SM VCSH BKN012 BKN022 28/24 A3002
cycle: 20

Station Type Date Time Source
KSUA TAF 2019/10/23 18:51 UTC NOAA

TAF KSUA 231749Z 2318/2418 01011G17KT P6SM VCSH SCT025 BKN035
FM240100 05005KT P6SM VCSH SCT025 BKN035
FM241400 10011KT P6SM SCT025 BKN040

Example: see airport list